createdAt,value
2022-10-01T00:02:03.129Z,100460.28
2022-10-01T00:04:31.808Z,100461.94
2022-10-01T00:07:03.118Z,100465.25
2022-10-01T00:09:31.375Z,100466.66
2022-10-01T00:11:59.790Z,100466.84
2022-10-01T00:14:27.669Z,100457.03
2022-10-01T00:16:55.237Z,100451.97
2022-10-01T00:19:22.939Z,100445.59
2022-10-01T00:21:51.650Z,100438.00
2022-10-01T00:24:19.145Z,100438.22
2022-10-01T00:26:48.100Z,100436.50
2022-10-01T00:29:15.885Z,100429.34
2022-10-01T00:31:43.499Z,100424.41
2022-10-01T00:34:15.241Z,100414.41
2022-10-01T00:36:42.546Z,100416.16
2022-10-01T00:39:12.852Z,100414.88
2022-10-01T00:41:40.536Z,100406.69
2022-10-01T00:44:32.828Z,100401.88
2022-10-01T00:47:08.410Z,100403.16
2022-10-01T00:49:40.894Z,100388.38
2022-10-01T00:52:13.857Z,100385.84
2022-10-01T00:54:49.305Z,100381.00
2022-10-01T00:57:21.911Z,100373.47
2022-10-01T00:59:51.540Z,100371.97
2022-10-01T01:02:18.831Z,100369.31
2022-10-01T01:04:46.445Z,100364.38
2022-10-01T01:07:14.776Z,100364.56
2022-10-01T01:09:47.139Z,100366.06
2022-10-01T01:12:30.507Z,100356.59
2022-10-01T01:15:15.156Z,100359.72
2022-10-01T01:17:54.717Z,100351.66
2022-10-01T01:21:11.506Z,100351.44
2022-10-01T01:24:32.200Z,100349.81
2022-10-01T01:27:18.958Z,100341.97
2022-10-01T01:30:00.803Z,100336.19
2022-10-01T01:32:35.012Z,100329.72
2022-10-01T01:35:08.002Z,100321.59
2022-10-01T01:37:41.783Z,100324.97
2022-10-01T01:40:13.878Z,100316.28
2022-10-01T01:42:45.077Z,100308.16
2022-10-01T01:45:19.812Z,100315.84
2022-10-01T01:47:48.541Z,100312.72
2022-10-01T01:50:17.857Z,100309.59
2022-10-01T01:52:45.938Z,100300.72
2022-10-01T01:55:14.119Z,100296.44
2022-10-01T01:57:44.334Z,100295.63
2022-10-01T02:00:16.106Z,100292.38
2022-10-01T02:02:50.189Z,100282.44
2022-10-01T02:05:23.307Z,100285.31
2022-10-01T02:08:35.832Z,100277.19
2022-10-01T02:11:19.782Z,100268.09
2022-10-01T02:14:02.029Z,100261.03
2022-10-01T02:16:46.011Z,100254.66
2022-10-01T02:19:23.716Z,100261.59
2022-10-01T02:22:00.376Z,100264.47
2022-10-01T02:24:39.146Z,100247.25
2022-10-01T02:27:13.623Z,100251.78
2022-10-01T02:29:43.438Z,100245.09
2022-10-01T02:32:15.931Z,100251.38
2022-10-01T02:34:49.329Z,100242.84
2022-10-01T02:37:21.375Z,100227.56
2022-10-01T02:39:52.077Z,100223.75
2022-10-01T02:42:22.134Z,100224.28
2022-10-01T02:44:53.721Z,100219.28
2022-10-01T02:47:34.141Z,100216.91
2022-10-01T02:50:02.945Z,100216.78
2022-10-01T02:52:40.400Z,100208.69
2022-10-01T02:55:14.889Z,100203.16
2022-10-01T02:57:43.156Z,100198.84
2022-10-01T03:00:14.628Z,100191.84
2022-10-01T03:02:43.418Z,100188.69
2022-10-01T03:05:10.816Z,100180.13
2022-10-01T03:07:39.985Z,100171.59
2022-10-01T03:10:09.701Z,100167.53
2022-10-01T03:12:38.006Z,100161.50
2022-10-01T03:15:07.123Z,100152.59
2022-10-01T03:17:36.115Z,100142.03
2022-10-01T03:20:06.831Z,100138.06
2022-10-01T03:22:34.791Z,100135.56
2022-10-01T03:25:02.155Z,100127.94
2022-10-01T03:27:29.529Z,100112.34
2022-10-01T03:29:56.950Z,100115.38
2022-10-01T03:32:24.223Z,100115.59
2022-10-01T03:34:51.469Z,100100.06
2022-10-01T03:37:20.076Z,100101.97
2022-10-01T03:39:47.547Z,100098.75
2022-10-01T03:42:16.666Z,100095.47
2022-10-01T03:44:44.201Z,100091.41
2022-10-01T03:47:11.862Z,100094.16
2022-10-01T03:49:39.189Z,100075.72
2022-10-01T03:52:06.762Z,100077.34
2022-10-01T03:54:35.434Z,100066.09
2022-10-01T03:57:02.718Z,100058.81
2022-10-01T03:59:29.992Z,100052.31
2022-10-01T04:01:57.389Z,100046.06
2022-10-01T04:04:24.792Z,100031.09
2022-10-01T04:06:52.103Z,100037.22
2022-10-01T04:09:19.346Z,100024.97
2022-10-01T04:11:48.257Z,100023.00
2022-10-01T04:14:15.529Z,100014.69
2022-10-01T04:16:43.423Z,100019.03
2022-10-01T04:19:10.701Z,100007.25
2022-10-01T04:21:39.067Z,99996.66
2022-10-01T04:24:06.831Z,99981.56
2022-10-01T04:26:34.232Z,99981.47
2022-10-01T04:29:02.836Z,99978.66
2022-10-01T04:31:35.074Z,99972.03
2022-10-01T04:34:03.724Z,99954.66
2022-10-01T04:36:31.182Z,99946.88
2022-10-01T04:39:02.119Z,99972.53
2022-10-01T04:41:31.140Z,99973.03
2022-10-01T04:43:59.818Z,99984.91
2022-10-01T04:46:30.073Z,99966.22
2022-10-01T04:48:57.709Z,99982.44
2022-10-01T04:51:25.403Z,99992.69
2022-10-01T04:53:52.734Z,99979.81
2022-10-01T04:56:19.990Z,99982.91
2022-10-01T04:58:48.251Z,99990.25
2022-10-01T05:01:15.572Z,99981.28
2022-10-01T05:03:44.603Z,99983.31
2022-10-01T05:06:11.829Z,99974.31
2022-10-01T05:08:39.178Z,99975.69
2022-10-01T05:11:06.668Z,99976.25
2022-10-01T05:13:33.977Z,99976.81
2022-10-01T05:16:03.755Z,99959.69
2022-10-01T05:18:31.736Z,99967.22
2022-10-01T05:21:05.570Z,99952.34
2022-10-01T05:23:33.294Z,99947.94
2022-10-01T05:26:00.900Z,99947.69
2022-10-01T05:28:28.252Z,99945.28
2022-10-01T05:30:59.389Z,99941.16
2022-10-01T05:33:27.036Z,99937.19
2022-10-01T05:35:54.343Z,99939.84
2022-10-01T05:38:23.346Z,99944.00
2022-10-01T05:40:50.575Z,99946.47
2022-10-01T05:43:18.699Z,99931.72
2022-10-01T05:45:46.026Z,99933.63
2022-10-01T05:48:13.423Z,99933.63
2022-10-01T05:50:42.322Z,99929.03
2022-10-01T05:53:12.111Z,99936.22
2022-10-01T05:55:40.840Z,99922.16
2022-10-01T05:58:11.775Z,99913.63
2022-10-01T06:00:41.703Z,99914.78
2022-10-01T06:03:13.088Z,99921.22
2022-10-01T06:05:40.628Z,99918.00
2022-10-01T06:08:11.790Z,99911.53
2022-10-01T06:10:41.054Z,99905.88
2022-10-01T06:13:08.469Z,99903.00
2022-10-01T06:15:38.956Z,99894.81
2022-10-01T06:18:08.752Z,99901.63
2022-10-01T06:20:36.628Z,99894.59
2022-10-01T06:23:11.341Z,99893.13
2022-10-01T06:25:41.951Z,99899.03
2022-10-01T06:28:12.679Z,99898.44
2022-10-01T06:30:40.430Z,99894.78
2022-10-01T06:33:10.872Z,99895.44
2022-10-01T06:35:43.211Z,99895.78
2022-10-01T06:38:11.428Z,99892.56
2022-10-01T06:40:40.833Z,99886.44
2022-10-01T06:43:09.194Z,99895.78
2022-10-01T06:45:40.008Z,99893.28
2022-10-01T06:48:09.783Z,99891.44
2022-10-01T06:50:37.031Z,99884.41
2022-10-01T06:53:04.989Z,99890.50
2022-10-01T06:55:36.376Z,99893.72
2022-10-01T06:58:08.208Z,99896.38
2022-10-01T07:00:39.041Z,99898.88
2022-10-01T07:03:11.076Z,99881.00
2022-10-01T07:05:38.967Z,99879.47
2022-10-01T07:08:07.346Z,99874.59
2022-10-01T07:10:35.423Z,99882.81
2022-10-01T07:13:09.801Z,99885.97
2022-10-01T07:15:38.043Z,99890.84
2022-10-01T07:18:06.320Z,99889.97
2022-10-01T07:20:36.000Z,99887.44
2022-10-01T07:23:03.524Z,99890.78
2022-10-01T07:25:31.313Z,99885.00
2022-10-01T07:28:02.207Z,99886.75
2022-10-01T07:30:32.829Z,99896.28
2022-10-01T07:33:00.148Z,99904.91
2022-10-01T07:35:28.497Z,99890.50
2022-10-01T07:37:55.715Z,99891.56
2022-10-01T07:40:23.210Z,99883.84
2022-10-01T07:42:56.338Z,99897.69
2022-10-01T07:45:25.056Z,99895.81
2022-10-01T07:47:55.040Z,99893.53
2022-10-01T07:50:23.418Z,99896.97
2022-10-01T07:52:54.316Z,99897.31
2022-10-01T07:55:22.588Z,99896.44
2022-10-01T07:57:53.100Z,99898.16
2022-10-01T08:00:21.948Z,99895.50
2022-10-01T08:02:50.751Z,99884.81
2022-10-01T08:05:21.766Z,99897.03
2022-10-01T08:07:50.922Z,99891.38
2022-10-01T08:10:20.555Z,99900.59
2022-10-01T08:12:47.984Z,99890.09
2022-10-01T08:15:18.049Z,99893.78
2022-10-01T08:17:45.632Z,99912.50
2022-10-01T08:20:15.377Z,99897.34
2022-10-01T08:22:44.047Z,99917.34
2022-10-01T08:25:11.414Z,99909.03
2022-10-01T08:27:38.851Z,99919.38
2022-10-01T08:30:07.990Z,99912.75
2022-10-01T08:32:35.262Z,99914.13
2022-10-01T08:35:04.260Z,99920.47
2022-10-01T08:37:31.554Z,99914.44
2022-10-01T08:40:00.476Z,99924.16
2022-10-01T08:42:54.033Z,99922.06
2022-10-01T08:45:28.421Z,99932.91
2022-10-01T08:48:05.011Z,99930.09
2022-10-01T08:50:44.592Z,99926.66
2022-10-01T08:53:24.114Z,99931.47
2022-10-01T08:55:56.150Z,99931.00
2022-10-01T08:58:35.320Z,99938.13
2022-10-01T09:01:03.000Z,99939.47
2022-10-01T09:03:32.524Z,99943.03
2022-10-01T09:06:18.042Z,99943.38
2022-10-01T09:09:06.649Z,99950.13
2022-10-01T09:12:04.318Z,99950.22
2022-10-01T09:15:08.809Z,99948.56
2022-10-01T09:18:03.590Z,99956.13
2022-10-01T09:20:38.311Z,99955.97
2022-10-01T09:23:23.093Z,99963.72
2022-10-01T09:25:51.897Z,99965.16
2022-10-01T09:28:24.914Z,99968.66
2022-10-01T09:31:03.950Z,99970.41
2022-10-01T09:33:36.218Z,99979.09
2022-10-01T09:36:18.229Z,99975.53
2022-10-01T09:38:54.987Z,99968.91
2022-10-01T09:41:23.194Z,99972.88
2022-10-01T09:43:51.996Z,99971.63
2022-10-01T09:46:20.157Z,99974.19
2022-10-01T09:48:57.489Z,99977.09
2022-10-01T09:51:36.847Z,99974.00
2022-10-01T09:54:19.262Z,99970.59
2022-10-01T09:56:54.821Z,99973.97
2022-10-01T09:59:31.709Z,99972.16
2022-10-01T10:02:02.246Z,99989.34
2022-10-01T10:04:30.091Z,99989.91
2022-10-01T10:07:03.028Z,99985.16
2022-10-01T10:09:33.004Z,99984.69
2022-10-01T10:12:01.932Z,99997.09
2022-10-01T10:14:35.369Z,100000.31
2022-10-01T10:17:11.173Z,99999.22
2022-10-01T10:19:40.416Z,100003.94
2022-10-01T10:22:23.207Z,100003.84
2022-10-01T10:24:52.555Z,100013.44
2022-10-01T10:27:26.795Z,100010.25
2022-10-01T10:30:13.538Z,100015.66
2022-10-01T10:32:43.001Z,100023.75
2022-10-01T10:35:17.352Z,100027.81
2022-10-01T10:37:49.699Z,100021.13
2022-10-01T10:40:22.765Z,100039.41
2022-10-01T10:42:56.088Z,100039.47
2022-10-01T10:45:33.657Z,100038.13
2022-10-01T10:48:04.654Z,100031.16
2022-10-01T10:50:37.214Z,100034.13
2022-10-01T10:53:22.625Z,100041.06
2022-10-01T10:56:02.377Z,100038.88
2022-10-01T10:58:34.193Z,100036.19
2022-10-01T11:01:10.364Z,100046.19
2022-10-01T11:03:46.396Z,100043.25
2022-10-01T11:06:18.037Z,100051.28
2022-10-01T11:08:57.260Z,100045.41
2022-10-01T11:11:55.180Z,100048.91
2022-10-01T11:14:47.864Z,100032.50
2022-10-01T11:17:43.757Z,100038.69
2022-10-01T11:20:33.661Z,100035.19
2022-10-01T11:23:37.648Z,100041.63
2022-10-01T11:26:24.512Z,100040.00
2022-10-01T11:29:12.205Z,100041.06
2022-10-01T11:31:52.806Z,100042.41
2022-10-01T11:35:04.641Z,100033.03
2022-10-01T11:37:53.426Z,100048.56
2022-10-01T11:40:27.299Z,100035.66
2022-10-01T11:43:05.287Z,100039.41
2022-10-01T11:45:42.340Z,100034.00
2022-10-01T11:48:19.293Z,100034.00
2022-10-01T11:51:05.781Z,100032.13
2022-10-01T11:53:45.387Z,100030.19
2022-10-01T11:56:38.257Z,100029.66
2022-10-01T11:59:13.732Z,100032.09
2022-10-01T12:01:47.775Z,100036.66
2022-10-01T12:04:32.235Z,100028.09
2022-10-01T12:07:13.696Z,100032.41
2022-10-01T12:09:58.242Z,100026.75
2022-10-01T12:12:30.080Z,100039.78
2022-10-01T12:15:09.366Z,100034.50
2022-10-01T12:17:45.566Z,100032.03
2022-10-01T12:20:25.017Z,100039.06
2022-10-01T12:22:56.367Z,100043.94
2022-10-01T12:25:36.111Z,100039.50
2022-10-01T12:28:12.521Z,100037.69
2022-10-01T12:30:49.326Z,100031.28
2022-10-01T12:33:56.341Z,100032.25
2022-10-01T12:36:38.583Z,100048.34
2022-10-01T12:39:34.225Z,100055.31
2022-10-01T12:42:25.501Z,100101.19
2022-10-01T12:45:05.781Z,100117.00
2022-10-01T12:47:55.816Z,100115.09
2022-10-01T12:50:39.896Z,100125.16
2022-10-01T12:53:30.055Z,100120.56
2022-10-01T12:56:17.390Z,100127.81
2022-10-01T12:59:09.530Z,100138.03
2022-10-01T13:01:56.885Z,100138.09
2022-10-01T13:04:56.594Z,100140.50
2022-10-01T13:07:49.131Z,100141.78
2022-10-01T13:10:46.103Z,100156.44
2022-10-01T13:13:21.548Z,100149.41
2022-10-01T13:15:55.401Z,100151.00
2022-10-01T13:18:39.908Z,100156.09
2022-10-01T13:21:19.233Z,100159.53
2022-10-01T13:23:53.503Z,100165.44
2022-10-01T13:26:33.078Z,100156.63
2022-10-01T13:29:41.751Z,100162.03
2022-10-01T13:32:29.569Z,100155.56
2022-10-01T13:34:59.614Z,100163.66
2022-10-01T13:37:37.558Z,100155.97
2022-10-01T13:40:25.580Z,100167.59
2022-10-01T13:42:57.277Z,100159.78
2022-10-01T13:45:39.344Z,100151.28
2022-10-01T13:48:16.939Z,100165.88
2022-10-01T13:50:58.288Z,100171.66
2022-10-01T13:53:28.976Z,100171.78
2022-10-01T13:55:58.658Z,100175.81
2022-10-01T13:58:36.384Z,100181.78
2022-10-01T14:01:27.876Z,100190.91
2022-10-01T14:04:05.541Z,100193.88
2022-10-01T14:06:44.211Z,100194.00
2022-10-01T14:09:19.353Z,100201.00
2022-10-01T14:12:10.843Z,100201.16
2022-10-01T14:15:00.862Z,100206.84
2022-10-01T14:17:33.473Z,100200.88
2022-10-01T14:20:02.489Z,100213.53
2022-10-01T14:22:52.652Z,100212.13
2022-10-01T14:25:39.108Z,100219.78
2022-10-01T14:28:27.763Z,100223.06
2022-10-01T14:31:07.029Z,100234.31
2022-10-01T14:34:13.119Z,100237.31
2022-10-01T14:36:45.291Z,100241.31
2022-10-01T14:39:16.695Z,100245.59
2022-10-01T14:41:45.581Z,100253.91
2022-10-01T14:44:23.008Z,100257.91
2022-10-01T14:46:51.475Z,100273.19
2022-10-01T14:49:27.064Z,100272.34
2022-10-01T14:52:00.761Z,100267.25
2022-10-01T14:54:31.226Z,100263.50
2022-10-01T14:56:59.670Z,100279.88
2022-10-01T14:59:35.489Z,100274.53
2022-10-01T15:02:17.349Z,100286.84
2022-10-01T15:04:47.820Z,100280.94
2022-10-01T15:07:17.140Z,100290.06
2022-10-01T15:09:45.527Z,100295.69
2022-10-01T15:12:15.800Z,100297.59
2022-10-01T15:14:44.896Z,100300.25
2022-10-01T15:17:21.331Z,100298.72
2022-10-01T15:19:54.876Z,100304.91
2022-10-01T15:22:27.361Z,100315.31
2022-10-01T15:24:59.616Z,100312.03
2022-10-01T15:27:27.642Z,100327.81
2022-10-01T15:29:58.819Z,100326.94
2022-10-01T15:32:28.192Z,100326.13
2022-10-01T15:35:01.093Z,100331.69
2022-10-01T15:37:34.815Z,100340.72
2022-10-01T15:40:05.954Z,100346.53
2022-10-01T15:42:35.337Z,100346.50
2022-10-01T15:45:25.510Z,100348.59
2022-10-01T15:47:56.831Z,100354.50
2022-10-01T15:50:29.958Z,100346.16
2022-10-01T15:53:14.123Z,100354.97
2022-10-01T15:55:46.133Z,100356.00
2022-10-01T15:58:20.011Z,100361.84
2022-10-01T16:01:00.626Z,100366.63
2022-10-01T16:03:32.978Z,100363.69
2022-10-01T16:06:04.190Z,100375.22
2022-10-01T16:08:39.317Z,100373.06
2022-10-01T16:11:19.288Z,100382.19
2022-10-01T16:13:49.040Z,100389.16
2022-10-01T16:16:31.095Z,100396.03
2022-10-01T16:20:04.500Z,100394.00
2022-10-01T16:22:35.251Z,100408.69
2022-10-01T16:25:07.433Z,100416.66
2022-10-01T16:27:45.278Z,100419.78
2022-10-01T16:30:21.627Z,100424.00
2022-10-01T16:32:49.687Z,100436.81
2022-10-01T16:35:21.102Z,100437.81
2022-10-01T16:37:53.374Z,100439.59
2022-10-01T16:40:24.056Z,100451.06
2022-10-01T16:42:52.790Z,100453.91
2022-10-01T16:45:24.609Z,100454.13
2022-10-01T16:47:53.247Z,100460.22
2022-10-01T16:50:22.981Z,100464.66
2022-10-01T16:52:55.618Z,100468.34
2022-10-01T16:55:26.553Z,100478.97
2022-10-01T16:57:55.256Z,100482.88
2022-10-01T17:00:25.734Z,100488.94
2022-10-01T17:02:53.814Z,100493.41
2022-10-01T17:05:25.223Z,100500.56
2022-10-01T17:07:54.739Z,100513.84
2022-10-01T17:10:24.134Z,100509.41
2022-10-01T17:12:51.585Z,100508.84
2022-10-01T17:15:23.168Z,100522.13
2022-10-01T17:17:50.503Z,100526.59
2022-10-01T17:20:18.204Z,100537.97
2022-10-01T17:22:46.196Z,100543.25
2022-10-01T17:25:18.952Z,100542.09
2022-10-01T17:27:47.321Z,100554.88
2022-10-01T17:30:15.791Z,100555.84
2022-10-01T17:32:43.421Z,100563.78
2022-10-01T17:35:12.465Z,100556.47
2022-10-01T17:37:40.747Z,100566.00
2022-10-01T17:40:10.541Z,100575.53
2022-10-01T17:42:39.556Z,100580.56
2022-10-01T17:45:11.021Z,100586.38
2022-10-01T17:47:43.824Z,100587.88
2022-10-01T17:50:11.380Z,100594.28
2022-10-01T17:52:38.897Z,100591.59
2022-10-01T17:55:07.565Z,100593.13
2022-10-01T17:57:35.148Z,100594.88
2022-10-01T18:00:05.773Z,100607.31
2022-10-01T18:02:42.063Z,100613.56
2022-10-01T18:05:12.428Z,100611.81
2022-10-01T18:07:41.006Z,100614.97
2022-10-01T18:10:12.786Z,100617.53
2022-10-01T18:12:40.343Z,100630.31
2022-10-01T18:15:10.565Z,100637.13
2022-10-01T18:20:25.952Z,100641.78
2022-10-01T18:22:53.695Z,100635.84
2022-10-01T18:25:20.934Z,100646.53
2022-10-01T18:27:50.146Z,100644.69
2022-10-01T18:30:20.225Z,100652.44
2022-10-01T18:32:56.718Z,100658.03
2022-10-01T18:35:31.469Z,100668.94
2022-10-01T18:38:04.856Z,100672.06
2022-10-01T18:40:39.988Z,100676.44
2022-10-01T18:43:13.906Z,100690.25
2022-10-01T18:46:09.555Z,100696.84
2022-10-01T18:49:06.149Z,100703.09
2022-10-01T18:51:52.400Z,100699.41
2022-10-01T18:54:52.094Z,100702.88
2022-10-01T18:57:42.002Z,100700.56
2022-10-01T19:00:12.693Z,100707.50
2022-10-01T19:03:21.481Z,100708.91
2022-10-01T19:06:22.880Z,100709.38
2022-10-01T19:09:21.867Z,100724.19
2022-10-01T19:12:04.632Z,100720.34
2022-10-01T19:14:55.860Z,100725.09
2022-10-01T19:17:55.827Z,100722.88
2022-10-01T19:20:54.293Z,100737.47
2022-10-01T19:23:53.234Z,100745.13
2022-10-01T19:26:31.071Z,100749.41
2022-10-01T19:29:23.080Z,100750.47
2022-10-01T19:31:57.018Z,100746.06
2022-10-01T19:34:32.105Z,100748.53
2022-10-01T19:37:10.218Z,100750.13
2022-10-01T19:39:41.735Z,100753.38
2022-10-01T19:42:17.967Z,100759.19
2022-10-01T19:44:57.527Z,100765.53
2022-10-01T19:47:41.005Z,100762.88
2022-10-01T19:50:20.499Z,100765.31
2022-10-01T19:52:53.540Z,100765.69
2022-10-01T19:55:24.358Z,100767.31
2022-10-01T19:57:52.702Z,100775.91
2022-10-01T20:00:23.045Z,100776.69
2022-10-01T20:03:00.829Z,100776.69
2022-10-01T20:05:32.208Z,100788.19
2022-10-01T20:08:12.589Z,100791.09
2022-10-01T20:10:45.273Z,100792.69
2022-10-01T20:13:32.964Z,100797.31
2022-10-01T20:16:18.151Z,100804.53
2022-10-01T20:18:57.812Z,100808.22
2022-10-01T20:21:43.589Z,100813.41
2022-10-01T20:24:33.055Z,100832.50
2022-10-01T20:27:16.538Z,100835.16
2022-10-01T20:29:52.420Z,100836.47
2022-10-01T20:32:28.589Z,100833.41
2022-10-01T20:35:12.003Z,100836.72
2022-10-01T20:37:57.525Z,100840.06
2022-10-01T20:40:32.849Z,100840.06
2022-10-01T20:43:07.108Z,100834.13
2022-10-01T20:45:35.754Z,100845.81
2022-10-01T20:48:11.880Z,100842.81
2022-10-01T20:50:44.909Z,100849.41
2022-10-01T20:53:31.935Z,100856.19
2022-10-01T20:56:12.224Z,100856.41
2022-10-01T20:58:46.170Z,100861.50
2022-10-01T21:01:20.552Z,100863.38
2022-10-01T21:03:56.543Z,100865.81
2022-10-01T21:06:33.394Z,100862.09
2022-10-01T21:09:15.031Z,100868.25
2022-10-01T21:11:49.850Z,100861.31
2022-10-01T21:14:27.605Z,100867.31
2022-10-01T21:17:29.424Z,100870.25
2022-10-01T21:20:16.706Z,100866.41
2022-10-01T21:23:05.193Z,100872.16
2022-10-01T21:25:53.998Z,100868.09
2022-10-01T21:28:55.166Z,100870.38
2022-10-01T21:31:41.626Z,100865.19
2022-10-01T21:34:18.470Z,100875.41
2022-10-01T21:37:01.290Z,100882.00
2022-10-01T21:39:35.706Z,100891.41
2022-10-01T21:42:16.359Z,100888.97
2022-10-01T21:45:22.891Z,100899.25
2022-10-01T21:48:13.460Z,100898.22
2022-10-01T21:50:55.604Z,100899.81
2022-10-01T21:54:00.921Z,100906.22
2022-10-01T21:56:50.300Z,100903.72
2022-10-01T21:59:40.669Z,100907.78
2022-10-01T22:02:30.324Z,100917.19
2022-10-01T22:05:09.444Z,100918.56
2022-10-01T22:07:48.244Z,100921.47
2022-10-01T22:10:23.223Z,100921.03
2022-10-01T22:12:58.644Z,100921.22
2022-10-01T22:15:32.250Z,100924.13
2022-10-01T22:18:06.166Z,100929.09
2022-10-01T22:20:35.569Z,100935.22
2022-10-01T22:23:09.569Z,100930.34
2022-10-01T22:25:46.687Z,100931.13
2022-10-01T22:28:21.371Z,100935.69
2022-10-01T22:30:53.957Z,100932.41
2022-10-01T22:33:31.117Z,100929.13
2022-10-01T22:36:06.655Z,100922.56
2022-10-01T22:38:42.358Z,100925.44
2022-10-01T22:41:19.437Z,100934.47
2022-10-01T22:43:46.779Z,100934.09
2022-10-01T22:46:46.783Z,100934.16
2022-10-01T22:49:38.006Z,100941.53
2022-10-01T22:52:25.220Z,100946.06
2022-10-01T22:55:10.290Z,100946.84
2022-10-01T22:58:13.016Z,100951.81
2022-10-01T23:00:53.672Z,100951.00
2022-10-01T23:03:37.640Z,100961.06
2022-10-01T23:06:15.828Z,100961.66
2022-10-01T23:08:50.485Z,100956.31
2022-10-01T23:11:27.005Z,100968.03
2022-10-01T23:14:09.082Z,100967.41
2022-10-01T23:16:50.635Z,100953.94
2022-10-01T23:19:42.234Z,100958.94
2022-10-01T23:22:24.773Z,100963.03
2022-10-01T23:25:13.980Z,100961.78
2022-10-01T23:28:03.792Z,100965.66
2022-10-01T23:30:46.810Z,100976.88
2022-10-01T23:33:37.918Z,100976.03
2022-10-01T23:36:24.229Z,100971.88
2022-10-01T23:39:40.949Z,100970.88
2022-10-01T23:42:27.888Z,100987.84
2022-10-01T23:45:14.255Z,100975.13
2022-10-01T23:47:54.233Z,100979.66
2022-10-01T23:50:30.297Z,100986.38
2022-10-01T23:53:09.658Z,100992.75
2022-10-01T23:56:07.775Z,101001.34
2022-10-01T23:58:46.356Z,101015.50
